sensor_id;sensor_type;location;lat;lon;timestamp;temperature;humidity
4308;DHT22;2167;53.448;9.984;2023-05-02T00:00:27;13.10;6.00
4308;DHT22;2167;53.448;9.984;2023-05-02T00:02:53;13.00;6.10
4308;DHT22;2167;53.448;9.984;2023-05-02T00:05:19;13.00;6.30
4308;DHT22;2167;53.448;9.984;2023-05-02T00:07:44;13.00;7.00
4308;DHT22;2167;53.448;9.984;2023-05-02T00:10:10;12.90;7.80
4308;DHT22;2167;53.448;9.984;2023-05-02T00:12:36;12.90;8.90
4308;DHT22;2167;53.448;9.984;2023-05-02T00:15:03;12.80;10.00
4308;DHT22;2167;53.448;9.984;2023-05-02T00:17:29;12.80;10.70
4308;DHT22;2167;53.448;9.984;2023-05-02T00:19:55;12.80;11.30
4308;DHT22;2167;53.448;9.984;2023-05-02T00:22:21;12.80;12.20
4308;DHT22;2167;53.448;9.984;2023-05-02T00:24:46;12.80;13.00
4308;DHT22;2167;53.448;9.984;2023-05-02T00:27:12;12.80;13.40
4308;DHT22;2167;53.448;9.984;2023-05-02T00:29:38;12.80;13.90
4308;DHT22;2167;53.448;9.984;2023-05-02T00:32:05;12.80;14.30
4308;DHT22;2167;53.448;9.984;2023-05-02T00:34:31;12.70;14.80
4308;DHT22;2167;53.448;9.984;2023-05-02T00:36:56;12.80;15.90
4308;DHT22;2167;53.448;9.984;2023-05-02T00:39:22;12.70;16.20
4308;DHT22;2167;53.448;9.984;2023-05-02T00:41:49;12.70;17.30
4308;DHT22;2167;53.448;9.984;2023-05-02T00:44:14;12.80;18.10
4308;DHT22;2167;53.448;9.984;2023-05-02T00:46:41;12.80;18.20
4308;DHT22;2167;53.448;9.984;2023-05-02T00:49:07;12.70;18.40
4308;DHT22;2167;53.448;9.984;2023-05-02T00:51:32;12.80;18.60
4308;DHT22;2167;53.448;9.984;2023-05-02T00:53:59;12.70;18.50
4308;DHT22;2167;53.448;9.984;2023-05-02T00:56:25;12.80;18.80
4308;DHT22;2167;53.448;9.984;2023-05-02T00:58:51;12.70;18.80
4308;DHT22;2167;53.448;9.984;2023-05-02T01:10:06;12.60;20.40
4308;DHT22;2167;53.448;9.984;2023-05-02T01:13:03;12.50;20.90
4308;DHT22;2167;53.448;9.984;2023-05-02T01:15:31;12.60;21.30
4308;DHT22;2167;53.448;9.984;2023-05-02T01:18:00;12.60;21.40
4308;DHT22;2167;53.448;9.984;2023-05-02T01:20:27;12.60;21.50
4308;DHT22;2167;53.448;9.984;2023-05-02T01:23:01;12.70;21.50
4308;DHT22;2167;53.448;9.984;2023-05-02T01:25:36;12.70;21.30
4308;DHT22;2167;53.448;9.984;2023-05-02T01:28:28;12.70;21.10
4308;DHT22;2167;53.448;9.984;2023-05-02T01:30:57;12.80;21.30
4308;DHT22;2167;53.448;9.984;2023-05-02T01:33:24;12.80;21.50
4308;DHT22;2167;53.448;9.984;2023-05-02T01:35:52;12.80;21.70
4308;DHT22;2167;53.448;9.984;2023-05-02T01:38:19;12.80;21.90
4308;DHT22;2167;53.448;9.984;2023-05-02T01:40:46;12.70;23.00
4308;DHT22;2167;53.448;9.984;2023-05-02T01:43:15;12.70;23.30
4308;DHT22;2167;53.448;9.984;2023-05-02T01:45:43;12.60;24.00
4308;DHT22;2167;53.448;9.984;2023-05-02T01:48:10;12.60;24.50
4308;DHT22;2167;53.448;9.984;2023-05-02T01:50:37;12.60;24.80
4308;DHT22;2167;53.448;9.984;2023-05-02T01:53:03;12.60;25.00
4308;DHT22;2167;53.448;9.984;2023-05-02T01:55:32;12.60;25.30
4308;DHT22;2167;53.448;9.984;2023-05-02T01:58:00;12.50;25.60
4308;DHT22;2167;53.448;9.984;2023-05-02T02:00:28;12.50;26.00
4308;DHT22;2167;53.448;9.984;2023-05-02T02:02:56;12.50;26.30
4308;DHT22;2167;53.448;9.984;2023-05-02T02:05:23;12.50;26.80
4308;DHT22;2167;53.448;9.984;2023-05-02T02:07:50;12.50;27.10
4308;DHT22;2167;53.448;9.984;2023-05-02T02:10:16;12.50;27.20
4308;DHT22;2167;53.448;9.984;2023-05-02T02:12:48;12.40;27.10
4308;DHT22;2167;53.448;9.984;2023-05-02T02:18:01;12.30;28.00
4308;DHT22;2167;53.448;9.984;2023-05-02T02:20:29;12.20;28.20
4308;DHT22;2167;53.448;9.984;2023-05-02T02:22:59;12.20;28.40
4308;DHT22;2167;53.448;9.984;2023-05-02T02:25:33;12.30;28.70
4308;DHT22;2167;53.448;9.984;2023-05-02T02:27:59;12.30;28.60
4308;DHT22;2167;53.448;9.984;2023-05-02T02:30:25;12.30;28.60
4308;DHT22;2167;53.448;9.984;2023-05-02T02:32:51;12.20;28.80
4308;DHT22;2167;53.448;9.984;2023-05-02T02:35:16;12.30;29.30
4308;DHT22;2167;53.448;9.984;2023-05-02T02:40:48;12.20;29.50
4308;DHT22;2167;53.448;9.984;2023-05-02T02:43:33;12.20;29.90
4308;DHT22;2167;53.448;9.984;2023-05-02T02:46:40;12.20;30.00
4308;DHT22;2167;53.448;9.984;2023-05-02T02:49:23;12.10;30.20
4308;DHT22;2167;53.448;9.984;2023-05-02T02:52:21;12.10;31.00
4308;DHT22;2167;53.448;9.984;2023-05-02T02:54:58;12.00;31.50
4308;DHT22;2167;53.448;9.984;2023-05-02T02:57:53;11.80;31.30
4308;DHT22;2167;53.448;9.984;2023-05-02T03:00:21;11.60;31.50
4308;DHT22;2167;53.448;9.984;2023-05-02T03:02:50;11.50;32.60
4308;DHT22;2167;53.448;9.984;2023-05-02T03:05:18;11.50;33.10
4308;DHT22;2167;53.448;9.984;2023-05-02T03:07:45;11.40;33.80
4308;DHT22;2167;53.448;9.984;2023-05-02T03:10:11;11.30;33.40
4308;DHT22;2167;53.448;9.984;2023-05-02T03:12:36;11.10;31.10
4308;DHT22;2167;53.448;9.984;2023-05-02T03:17:56;10.60;27.00
4308;DHT22;2167;53.448;9.984;2023-05-02T03:20:21;10.40;25.80
4308;DHT22;2167;53.448;9.984;2023-05-02T03:22:47;10.30;26.20
4308;DHT22;2167;53.448;9.984;2023-05-02T03:25:13;10.20;26.20
4308;DHT22;2167;53.448;9.984;2023-05-02T03:27:39;10.00;24.90
4308;DHT22;2167;53.448;9.984;2023-05-02T03:30:05;10.00;25.00
4308;DHT22;2167;53.448;9.984;2023-05-02T03:32:31;10.00;25.00
4308;DHT22;2167;53.448;9.984;2023-05-02T03:34:56;9.90;25.20
4308;DHT22;2167;53.448;9.984;2023-05-02T03:37:23;10.00;24.30
4308;DHT22;2167;53.448;9.984;2023-05-02T03:39:49;9.90;23.70
4308;DHT22;2167;53.448;9.984;2023-05-02T03:42:14;9.90;22.60
4308;DHT22;2167;53.448;9.984;2023-05-02T03:44:40;9.90;23.30
4308;DHT22;2167;53.448;9.984;2023-05-02T03:47:05;10.00;24.00
4308;DHT22;2167;53.448;9.984;2023-05-02T03:49:33;10.00;23.20
4308;DHT22;2167;53.448;9.984;2023-05-02T03:52:00;9.90;21.80
4308;DHT22;2167;53.448;9.984;2023-05-02T03:54:26;9.80;22.80
4308;DHT22;2167;53.448;9.984;2023-05-02T03:56:54;9.90;23.70
4308;DHT22;2167;53.448;9.984;2023-05-02T03:59:20;9.90;23.00
4308;DHT22;2167;53.448;9.984;2023-05-02T04:01:49;9.80;20.80
4308;DHT22;2167;53.448;9.984;2023-05-02T04:04:15;9.80;21.10
4308;DHT22;2167;53.448;9.984;2023-05-02T04:06:40;9.80;19.60
4308;DHT22;2167;53.448;9.984;2023-05-02T04:09:06;9.80;20.00
4308;DHT22;2167;53.448;9.984;2023-05-02T04:11:32;9.70;17.50
4308;DHT22;2167;53.448;9.984;2023-05-02T04:13:58;9.80;18.90
4308;DHT22;2167;53.448;9.984;2023-05-02T04:16:24;9.70;16.10
4308;DHT22;2167;53.448;9.984;2023-05-02T04:18:52;9.60;16.70
4308;DHT22;2167;53.448;9.984;2023-05-02T04:21:17;9.60;17.00
4308;DHT22;2167;53.448;9.984;2023-05-02T04:23:43;9.60;15.80
4308;DHT22;2167;53.448;9.984;2023-05-02T04:26:08;9.50;15.60
4308;DHT22;2167;53.448;9.984;2023-05-02T04:28:34;9.60;15.60
4308;DHT22;2167;53.448;9.984;2023-05-02T04:31:01;9.50;15.00
4308;DHT22;2167;53.448;9.984;2023-05-02T04:33:28;9.50;14.40
4308;DHT22;2167;53.448;9.984;2023-05-02T04:35:57;9.50;13.80
4308;DHT22;2167;53.448;9.984;2023-05-02T04:38:24;9.50;14.20
4308;DHT22;2167;53.448;9.984;2023-05-02T04:40:50;9.40;13.20
4308;DHT22;2167;53.448;9.984;2023-05-02T04:43:16;9.40;11.70
4308;DHT22;2167;53.448;9.984;2023-05-02T04:45:42;9.30;10.60
4308;DHT22;2167;53.448;9.984;2023-05-02T04:48:08;9.30;10.70
4308;DHT22;2167;53.448;9.984;2023-05-02T04:50:33;9.20;10.30
4308;DHT22;2167;53.448;9.984;2023-05-02T04:52:59;9.30;10.10
4308;DHT22;2167;53.448;9.984;2023-05-02T04:55:24;9.20;10.00
4308;DHT22;2167;53.448;9.984;2023-05-02T04:57:50;9.30;10.00
4308;DHT22;2167;53.448;9.984;2023-05-02T05:00:16;9.30;8.90
4308;DHT22;2167;53.448;9.984;2023-05-02T05:02:41;9.30;7.50
4308;DHT22;2167;53.448;9.984;2023-05-02T05:05:07;9.30;6.90
4308;DHT22;2167;53.448;9.984;2023-05-02T05:07:33;9.40;7.50
4308;DHT22;2167;53.448;9.984;2023-05-02T05:09:59;9.40;7.30
4308;DHT22;2167;53.448;9.984;2023-05-02T05:12:25;9.40;6.10
4308;DHT22;2167;53.448;9.984;2023-05-02T05:14:50;9.40;6.40
4308;DHT22;2167;53.448;9.984;2023-05-02T05:17:17;9.50;6.20
4308;DHT22;2167;53.448;9.984;2023-05-02T05:19:42;9.50;6.40
4308;DHT22;2167;53.448;9.984;2023-05-02T05:22:08;9.50;5.70
4308;DHT22;2167;53.448;9.984;2023-05-02T05:24:34;9.50;4.50
4308;DHT22;2167;53.448;9.984;2023-05-02T05:26:59;9.50;4.60
4308;DHT22;2167;53.448;9.984;2023-05-02T05:29:25;9.50;4.00
4308;DHT22;2167;53.448;9.984;2023-05-02T05:31:50;9.50;3.30
4308;DHT22;2167;53.448;9.984;2023-05-02T05:34:16;9.50;3.40
4308;DHT22;2167;53.448;9.984;2023-05-02T05:36:42;9.50;4.00
4308;DHT22;2167;53.448;9.984;2023-05-02T05:39:07;9.50;4.70
4308;DHT22;2167;53.448;9.984;2023-05-02T05:41:34;9.60;3.00
4308;DHT22;2167;53.448;9.984;2023-05-02T05:44:00;9.60;1.90
4308;DHT22;2167;53.448;9.984;2023-05-02T05:46:25;9.60;1.00
4308;DHT22;2167;53.448;9.984;2023-05-02T05:48:51;9.60;1.00
4308;DHT22;2167;53.448;9.984;2023-05-02T05:51:16;9.50;1.00
4308;DHT22;2167;53.448;9.984;2023-05-02T05:53:42;9.60;1.00
4308;DHT22;2167;53.448;9.984;2023-05-02T05:56:11;9.50;1.00
4308;DHT22;2167;53.448;9.984;2023-05-02T05:58:38;9.50;1.00
4308;DHT22;2167;53.448;9.984;2023-05-02T06:01:04;9.50;1.00
4308;DHT22;2167;53.448;9.984;2023-05-02T06:03:29;9.40;1.00
4308;DHT22;2167;53.448;9.984;2023-05-02T06:05:55;9.40;1.00
4308;DHT22;2167;53.448;9.984;2023-05-02T06:08:21;9.40;1.00
4308;DHT22;2167;53.448;9.984;2023-05-02T06:10:48;9.30;1.00
4308;DHT22;2167;53.448;9.984;2023-05-02T06:13:13;9.30;1.00
4308;DHT22;2167;53.448;9.984;2023-05-02T06:15:39;9.20;1.00
4308;DHT22;2167;53.448;9.984;2023-05-02T06:18:05;9.20;1.00
4308;DHT22;2167;53.448;9.984;2023-05-02T06:20:31;9.20;1.00
4308;DHT22;2167;53.448;9.984;2023-05-02T06:22:56;9.20;1.00
4308;DHT22;2167;53.448;9.984;2023-05-02T06:25:22;9.20;1.00
4308;DHT22;2167;53.448;9.984;2023-05-02T06:27:47;9.20;1.00
4308;DHT22;2167;53.448;9.984;2023-05-02T06:30:13;9.20;1.00
4308;DHT22;2167;53.448;9.984;2023-05-02T06:32:39;9.10;1.00
4308;DHT22;2167;53.448;9.984;2023-05-02T06:35:06;9.10;1.00
4308;DHT22;2167;53.448;9.984;2023-05-02T06:37:33;9.10;1.00
4308;DHT22;2167;53.448;9.984;2023-05-02T06:40:02;9.10;1.00
4308;DHT22;2167;53.448;9.984;2023-05-02T06:42:28;9.20;1.00
4308;DHT22;2167;53.448;9.984;2023-05-02T06:44:54;9.10;1.00
4308;DHT22;2167;53.448;9.984;2023-05-02T06:47:20;9.10;1.00
4308;DHT22;2167;53.448;9.984;2023-05-02T06:49:46;9.10;1.00
4308;DHT22;2167;53.448;9.984;2023-05-02T06:52:11;9.10;1.00
4308;DHT22;2167;53.448;9.984;2023-05-02T06:54:37;9.10;1.00
4308;DHT22;2167;53.448;9.984;2023-05-02T06:57:04;9.20;1.00
4308;DHT22;2167;53.448;9.984;2023-05-02T06:59:30;9.20;1.00
4308;DHT22;2167;53.448;9.984;2023-05-02T07:01:55;9.10;1.00
4308;DHT22;2167;53.448;9.984;2023-05-02T07:04:21;9.10;1.00
4308;DHT22;2167;53.448;9.984;2023-05-02T07:06:46;9.00;1.00
4308;DHT22;2167;53.448;9.984;2023-05-02T07:09:12;9.10;1.00
4308;DHT22;2167;53.448;9.984;2023-05-02T07:11:37;9.00;1.00
4308;DHT22;2167;53.448;9.984;2023-05-02T07:14:03;8.90;1.00
4308;DHT22;2167;53.448;9.984;2023-05-02T07:16:28;9.00;1.00
4308;DHT22;2167;53.448;9.984;2023-05-02T07:18:54;9.00;1.00
4308;DHT22;2167;53.448;9.984;2023-05-02T07:21:20;9.10;1.00
4308;DHT22;2167;53.448;9.984;2023-05-02T07:23:45;9.20;1.00
4308;DHT22;2167;53.448;9.984;2023-05-02T07:26:11;9.20;1.00
4308;DHT22;2167;53.448;9.984;2023-05-02T07:28:36;9.20;1.00
4308;DHT22;2167;53.448;9.984;2023-05-02T07:31:02;9.20;1.00
4308;DHT22;2167;53.448;9.984;2023-05-02T07:33:28;9.10;1.00
4308;DHT22;2167;53.448;9.984;2023-05-02T07:35:55;9.00;1.00
4308;DHT22;2167;53.448;9.984;2023-05-02T07:38:20;9.10;1.00
4308;DHT22;2167;53.448;9.984;2023-05-02T07:40:46;9.10;1.00
4308;DHT22;2167;53.448;9.984;2023-05-02T07:43:12;9.00;1.00
4308;DHT22;2167;53.448;9.984;2023-05-02T07:45:38;9.10;1.00
4308;DHT22;2167;53.448;9.984;2023-05-02T07:48:04;9.10;1.00
4308;DHT22;2167;53.448;9.984;2023-05-02T07:50:30;9.10;1.00
4308;DHT22;2167;53.448;9.984;2023-05-02T07:52:55;9.20;1.00
4308;DHT22;2167;53.448;9.984;2023-05-02T07:55:21;9.20;1.00
4308;DHT22;2167;53.448;9.984;2023-05-02T07:57:47;9.30;1.00
4308;DHT22;2167;53.448;9.984;2023-05-02T08:00:13;9.40;1.00
4308;DHT22;2167;53.448;9.984;2023-05-02T08:02:40;9.50;1.00
4308;DHT22;2167;53.448;9.984;2023-05-02T08:05:06;9.50;1.00
4308;DHT22;2167;53.448;9.984;2023-05-02T08:07:32;9.50;1.00
4308;DHT22;2167;53.448;9.984;2023-05-02T08:10:00;9.40;1.00
4308;DHT22;2167;53.448;9.984;2023-05-02T08:12:26;9.30;1.00
4308;DHT22;2167;53.448;9.984;2023-05-02T08:14:51;9.30;1.00
4308;DHT22;2167;53.448;9.984;2023-05-02T08:17:17;9.50;1.00
4308;DHT22;2167;53.448;9.984;2023-05-02T08:19:43;9.60;1.00
4308;DHT22;2167;53.448;9.984;2023-05-02T08:22:08;9.60;1.00
4308;DHT22;2167;53.448;9.984;2023-05-02T08:24:34;9.70;1.00
4308;DHT22;2167;53.448;9.984;2023-05-02T08:27:00;9.80;1.00
4308;DHT22;2167;53.448;9.984;2023-05-02T08:29:28;9.90;1.00
4308;DHT22;2167;53.448;9.984;2023-05-02T08:31:54;9.90;1.00
4308;DHT22;2167;53.448;9.984;2023-05-02T08:34:19;10.00;1.00
4308;DHT22;2167;53.448;9.984;2023-05-02T08:36:46;10.10;1.00
4308;DHT22;2167;53.448;9.984;2023-05-02T08:39:11;10.20;1.00
4308;DHT22;2167;53.448;9.984;2023-05-02T08:41:38;10.30;1.00
4308;DHT22;2167;53.448;9.984;2023-05-02T08:44:05;10.30;1.00
4308;DHT22;2167;53.448;9.984;2023-05-02T08:46:34;10.20;1.00
4308;DHT22;2167;53.448;9.984;2023-05-02T08:49:00;10.20;1.00
4308;DHT22;2167;53.448;9.984;2023-05-02T08:51:27;10.10;1.00
4308;DHT22;2167;53.448;9.984;2023-05-02T08:53:53;10.30;1.00
4308;DHT22;2167;53.448;9.984;2023-05-02T08:56:19;10.40;1.00
4308;DHT22;2167;53.448;9.984;2023-05-02T08:58:45;10.30;1.00
4308;DHT22;2167;53.448;9.984;2023-05-02T09:01:16;10.30;1.00
4308;DHT22;2167;53.448;9.984;2023-05-02T09:03:43;10.30;1.00
4308;DHT22;2167;53.448;9.984;2023-05-02T09:06:11;10.20;1.00
4308;DHT22;2167;53.448;9.984;2023-05-02T09:08:38;10.20;1.00
4308;DHT22;2167;53.448;9.984;2023-05-02T09:11:05;10.30;1.00
4308;DHT22;2167;53.448;9.984;2023-05-02T09:16:00;10.80;1.00
4308;DHT22;2167;53.448;9.984;2023-05-02T09:21:00;11.10;1.00
4308;DHT22;2167;53.448;9.984;2023-05-02T09:23:32;11.20;1.00
4308;DHT22;2167;53.448;9.984;2023-05-02T09:25:59;11.40;1.00
4308;DHT22;2167;53.448;9.984;2023-05-02T09:28:39;11.60;1.00
4308;DHT22;2167;53.448;9.984;2023-05-02T09:31:06;11.70;1.00
4308;DHT22;2167;53.448;9.984;2023-05-02T09:33:33;11.70;1.00
4308;DHT22;2167;53.448;9.984;2023-05-02T09:35:59;11.80;1.00
4308;DHT22;2167;53.448;9.984;2023-05-02T09:38:25;11.80;1.00
4308;DHT22;2167;53.448;9.984;2023-05-02T09:40:54;11.90;1.00
4308;DHT22;2167;53.448;9.984;2023-05-02T09:43:21;12.00;1.00
4308;DHT22;2167;53.448;9.984;2023-05-02T09:46:00;12.00;1.00
4308;DHT22;2167;53.448;9.984;2023-05-02T09:48:27;12.00;1.00
4308;DHT22;2167;53.448;9.984;2023-05-02T09:50:53;12.10;1.00
4308;DHT22;2167;53.448;9.984;2023-05-02T09:53:19;12.10;1.00
4308;DHT22;2167;53.448;9.984;2023-05-02T09:55:44;12.20;1.00
4308;DHT22;2167;53.448;9.984;2023-05-02T09:58:21;12.10;1.00
4308;DHT22;2167;53.448;9.984;2023-05-02T10:00:49;12.20;1.00
4308;DHT22;2167;53.448;9.984;2023-05-02T10:03:16;12.40;1.00
4308;DHT22;2167;53.448;9.984;2023-05-02T10:05:46;12.50;1.00
4308;DHT22;2167;53.448;9.984;2023-05-02T10:08:12;12.90;1.00
4308;DHT22;2167;53.448;9.984;2023-05-02T10:10:40;13.20;1.00
4308;DHT22;2167;53.448;9.984;2023-05-02T10:13:07;13.30;1.00
4308;DHT22;2167;53.448;9.984;2023-05-02T10:15:36;13.50;1.00
4308;DHT22;2167;53.448;9.984;2023-05-02T10:18:10;13.50;1.00
4308;DHT22;2167;53.448;9.984;2023-05-02T10:20:43;13.30;1.00
4308;DHT22;2167;53.448;9.984;2023-05-02T10:23:12;12.90;1.00
4308;DHT22;2167;53.448;9.984;2023-05-02T10:25:38;12.70;1.00
4308;DHT22;2167;53.448;9.984;2023-05-02T10:28:04;12.40;1.00
4308;DHT22;2167;53.448;9.984;2023-05-02T10:30:31;12.20;1.00
4308;DHT22;2167;53.448;9.984;2023-05-02T10:32:58;12.20;1.00
4308;DHT22;2167;53.448;9.984;2023-05-02T10:35:24;12.20;1.00
4308;DHT22;2167;53.448;9.984;2023-05-02T10:37:51;12.30;1.00
4308;DHT22;2167;53.448;9.984;2023-05-02T10:40:17;12.60;1.00
4308;DHT22;2167;53.448;9.984;2023-05-02T10:42:45;12.80;1.00
4308;DHT22;2167;53.448;9.984;2023-05-02T10:45:12;12.80;1.00
4308;DHT22;2167;53.448;9.984;2023-05-02T10:48:19;12.80;1.00
4308;DHT22;2167;53.448;9.984;2023-05-02T10:50:53;12.70;1.00
4308;DHT22;2167;53.448;9.984;2023-05-02T10:58:39;12.40;1.00
4308;DHT22;2167;53.448;9.984;2023-05-02T11:04:06;12.50;1.00
4308;DHT22;2167;53.448;9.984;2023-05-02T11:06:35;12.80;1.00
4308;DHT22;2167;53.448;9.984;2023-05-02T11:11:42;13.50;1.00
4308;DHT22;2167;53.448;9.984;2023-05-02T11:14:10;13.90;1.00
4308;DHT22;2167;53.448;9.984;2023-05-02T11:24:49;14.00;1.00
4308;DHT22;2167;53.448;9.984;2023-05-02T11:29:58;13.60;1.00
4308;DHT22;2167;53.448;9.984;2023-05-02T11:35:26;13.70;1.00
4308;DHT22;2167;53.448;9.984;2023-05-02T11:37:53;13.70;1.00
4308;DHT22;2167;53.448;9.984;2023-05-02T11:40:19;13.60;1.00
4308;DHT22;2167;53.448;9.984;2023-05-02T11:42:45;13.50;1.00
4308;DHT22;2167;53.448;9.984;2023-05-02T11:45:11;13.50;1.00
4308;DHT22;2167;53.448;9.984;2023-05-02T11:47:37;13.30;1.00
4308;DHT22;2167;53.448;9.984;2023-05-02T11:50:08;13.00;1.00
4308;DHT22;2167;53.448;9.984;2023-05-02T11:52:37;12.80;1.00
4308;DHT22;2167;53.448;9.984;2023-05-02T11:55:11;12.70;1.00
4308;DHT22;2167;53.448;9.984;2023-05-02T11:57:38;12.60;1.00
4308;DHT22;2167;53.448;9.984;2023-05-02T12:00:13;12.50;1.00
4308;DHT22;2167;53.448;9.984;2023-05-02T12:02:41;12.50;1.00
4308;DHT22;2167;53.448;9.984;2023-05-02T12:05:11;12.50;1.00
4308;DHT22;2167;53.448;9.984;2023-05-02T12:07:41;12.50;1.00
4308;DHT22;2167;53.448;9.984;2023-05-02T12:10:08;12.60;1.00
4308;DHT22;2167;53.448;9.984;2023-05-02T12:12:34;12.60;1.00
4308;DHT22;2167;53.448;9.984;2023-05-02T12:15:08;12.50;1.00
4308;DHT22;2167;53.448;9.984;2023-05-02T12:17:36;12.40;1.00
4308;DHT22;2167;53.448;9.984;2023-05-02T12:20:04;12.50;1.00
4308;DHT22;2167;53.448;9.984;2023-05-02T12:22:31;12.50;1.00
4308;DHT22;2167;53.448;9.984;2023-05-02T12:24:57;12.50;1.00
4308;DHT22;2167;53.448;9.984;2023-05-02T12:27:30;12.60;1.00
4308;DHT22;2167;53.448;9.984;2023-05-02T12:29:57;12.70;1.00
4308;DHT22;2167;53.448;9.984;2023-05-02T12:32:41;12.90;1.00
4308;DHT22;2167;53.448;9.984;2023-05-02T12:35:22;13.00;1.00
4308;DHT22;2167;53.448;9.984;2023-05-02T12:37:47;13.00;1.00
4308;DHT22;2167;53.448;9.984;2023-05-02T12:40:16;13.00;1.00
4308;DHT22;2167;53.448;9.984;2023-05-02T12:42:42;13.20;1.00
4308;DHT22;2167;53.448;9.984;2023-05-02T12:45:22;13.40;1.00
4308;DHT22;2167;53.448;9.984;2023-05-02T12:47:47;13.40;1.00
4308;DHT22;2167;53.448;9.984;2023-05-02T12:50:13;13.50;1.00
4308;DHT22;2167;53.448;9.984;2023-05-02T12:52:51;13.40;1.00
4308;DHT22;2167;53.448;9.984;2023-05-02T12:55:25;13.20;1.00
4308;DHT22;2167;53.448;9.984;2023-05-02T12:58:03;13.00;1.00
4308;DHT22;2167;53.448;9.984;2023-05-02T13:00:30;12.80;1.00
4308;DHT22;2167;53.448;9.984;2023-05-02T13:02:56;12.90;1.00
4308;DHT22;2167;53.448;9.984;2023-05-02T13:05:22;13.10;1.00
4308;DHT22;2167;53.448;9.984;2023-05-02T13:07:48;13.10;1.00
4308;DHT22;2167;53.448;9.984;2023-05-02T13:10:13;13.00;1.00
4308;DHT22;2167;53.448;9.984;2023-05-02T13:12:43;13.10;1.00
4308;DHT22;2167;53.448;9.984;2023-05-02T13:15:09;13.10;1.00
4308;DHT22;2167;53.448;9.984;2023-05-02T13:17:35;13.00;1.00
4308;DHT22;2167;53.448;9.984;2023-05-02T13:20:00;12.80;1.00
4308;DHT22;2167;53.448;9.984;2023-05-02T13:22:27;12.80;1.00
4308;DHT22;2167;53.448;9.984;2023-05-02T13:24:53;12.80;1.00
4308;DHT22;2167;53.448;9.984;2023-05-02T13:27:21;12.70;1.00
4308;DHT22;2167;53.448;9.984;2023-05-02T13:29:48;12.70;1.00
4308;DHT22;2167;53.448;9.984;2023-05-02T13:32:14;12.60;1.00
4308;DHT22;2167;53.448;9.984;2023-05-02T13:34:39;12.60;1.00
4308;DHT22;2167;53.448;9.984;2023-05-02T13:37:05;12.70;1.00
4308;DHT22;2167;53.448;9.984;2023-05-02T13:39:31;12.50;1.00
4308;DHT22;2167;53.448;9.984;2023-05-02T13:41:56;12.30;1.00
4308;DHT22;2167;53.448;9.984;2023-05-02T13:44:22;12.20;1.00
4308;DHT22;2167;53.448;9.984;2023-05-02T13:46:48;12.20;1.00
4308;DHT22;2167;53.448;9.984;2023-05-02T13:49:14;12.30;1.00
4308;DHT22;2167;53.448;9.984;2023-05-02T13:51:40;12.30;1.00
4308;DHT22;2167;53.448;9.984;2023-05-02T13:54:06;12.30;1.00
4308;DHT22;2167;53.448;9.984;2023-05-02T13:56:31;12.20;1.00
4308;DHT22;2167;53.448;9.984;2023-05-02T13:58:57;12.30;1.00
4308;DHT22;2167;53.448;9.984;2023-05-02T14:01:23;12.50;1.00
4308;DHT22;2167;53.448;9.984;2023-05-02T14:03:54;12.70;1.00
4308;DHT22;2167;53.448;9.984;2023-05-02T14:06:19;13.00;1.00
4308;DHT22;2167;53.448;9.984;2023-05-02T14:08:45;13.50;1.00
4308;DHT22;2167;53.448;9.984;2023-05-02T14:11:11;13.80;1.00
4308;DHT22;2167;53.448;9.984;2023-05-02T14:13:36;14.00;1.00
4308;DHT22;2167;53.448;9.984;2023-05-02T14:16:02;14.20;1.00
4308;DHT22;2167;53.448;9.984;2023-05-02T14:18:28;14.20;1.00
4308;DHT22;2167;53.448;9.984;2023-05-02T14:20:53;14.40;1.00
4308;DHT22;2167;53.448;9.984;2023-05-02T14:23:22;14.80;1.00
4308;DHT22;2167;53.448;9.984;2023-05-02T14:25:48;15.10;1.00
4308;DHT22;2167;53.448;9.984;2023-05-02T14:28:13;15.20;1.00
4308;DHT22;2167;53.448;9.984;2023-05-02T14:30:39;15.10;1.00
4308;DHT22;2167;53.448;9.984;2023-05-02T14:33:05;14.80;1.00
4308;DHT22;2167;53.448;9.984;2023-05-02T14:35:30;14.50;1.00
4308;DHT22;2167;53.448;9.984;2023-05-02T14:37:56;14.30;1.00
4308;DHT22;2167;53.448;9.984;2023-05-02T14:40:21;14.00;1.00
4308;DHT22;2167;53.448;9.984;2023-05-02T14:42:47;13.80;1.00
4308;DHT22;2167;53.448;9.984;2023-05-02T14:45:12;13.50;1.00
4308;DHT22;2167;53.448;9.984;2023-05-02T14:47:38;13.40;1.00
4308;DHT22;2167;53.448;9.984;2023-05-02T14:50:06;13.00;1.00
4308;DHT22;2167;53.448;9.984;2023-05-02T14:52:32;12.70;1.00
4308;DHT22;2167;53.448;9.984;2023-05-02T14:55:01;12.50;1.00
4308;DHT22;2167;53.448;9.984;2023-05-02T14:57:27;12.40;1.00
4308;DHT22;2167;53.448;9.984;2023-05-02T14:59:53;12.20;1.00
4308;DHT22;2167;53.448;9.984;2023-05-02T15:02:19;12.20;1.00
4308;DHT22;2167;53.448;9.984;2023-05-02T15:04:46;12.20;1.00
4308;DHT22;2167;53.448;9.984;2023-05-02T15:07:14;12.30;1.00
4308;DHT22;2167;53.448;9.984;2023-05-02T15:09:40;12.30;1.00
4308;DHT22;2167;53.448;9.984;2023-05-02T15:12:05;12.40;1.00
4308;DHT22;2167;53.448;9.984;2023-05-02T15:14:31;12.50;1.00
4308;DHT22;2167;53.448;9.984;2023-05-02T15:16:57;12.60;1.00
4308;DHT22;2167;53.448;9.984;2023-05-02T15:19:22;12.70;1.00
4308;DHT22;2167;53.448;9.984;2023-05-02T15:21:49;12.80;1.00
4308;DHT22;2167;53.448;9.984;2023-05-02T15:24:20;12.60;1.00
4308;DHT22;2167;53.448;9.984;2023-05-02T15:26:46;12.50;1.00
4308;DHT22;2167;53.448;9.984;2023-05-02T15:29:15;12.30;1.00
4308;DHT22;2167;53.448;9.984;2023-05-02T15:31:41;12.40;1.00
4308;DHT22;2167;53.448;9.984;2023-05-02T15:34:06;12.30;1.00
4308;DHT22;2167;53.448;9.984;2023-05-02T15:36:32;12.30;1.00
4308;DHT22;2167;53.448;9.984;2023-05-02T15:39:02;12.30;1.00
4308;DHT22;2167;53.448;9.984;2023-05-02T15:41:27;12.30;1.00
4308;DHT22;2167;53.448;9.984;2023-05-02T15:43:53;12.30;1.00
4308;DHT22;2167;53.448;9.984;2023-05-02T15:46:18;12.30;1.00
4308;DHT22;2167;53.448;9.984;2023-05-02T15:48:45;12.20;1.00
4308;DHT22;2167;53.448;9.984;2023-05-02T15:51:11;12.30;1.00
4308;DHT22;2167;53.448;9.984;2023-05-02T15:53:38;12.30;1.00
4308;DHT22;2167;53.448;9.984;2023-05-02T15:56:10;12.30;1.00
4308;DHT22;2167;53.448;9.984;2023-05-02T15:58:36;12.30;1.00
4308;DHT22;2167;53.448;9.984;2023-05-02T16:01:03;12.40;1.00
4308;DHT22;2167;53.448;9.984;2023-05-02T16:03:28;12.50;1.00
4308;DHT22;2167;53.448;9.984;2023-05-02T16:05:56;12.70;1.00
4308;DHT22;2167;53.448;9.984;2023-05-02T16:08:26;12.90;1.00
4308;DHT22;2167;53.448;9.984;2023-05-02T16:10:53;13.00;1.00
4308;DHT22;2167;53.448;9.984;2023-05-02T16:13:19;13.10;1.00
4308;DHT22;2167;53.448;9.984;2023-05-02T16:15:45;13.00;1.00
4308;DHT22;2167;53.448;9.984;2023-05-02T16:18:13;12.90;1.00
4308;DHT22;2167;53.448;9.984;2023-05-02T16:20:39;12.80;1.00
4308;DHT22;2167;53.448;9.984;2023-05-02T16:23:04;12.80;1.00
4308;DHT22;2167;53.448;9.984;2023-05-02T16:25:30;12.80;1.00
4308;DHT22;2167;53.448;9.984;2023-05-02T16:27:57;12.90;1.00
4308;DHT22;2167;53.448;9.984;2023-05-02T16:30:22;13.10;1.00
4308;DHT22;2167;53.448;9.984;2023-05-02T16:32:48;13.20;1.00
4308;DHT22;2167;53.448;9.984;2023-05-02T16:35:17;13.20;1.00
4308;DHT22;2167;53.448;9.984;2023-05-02T16:37:44;13.10;1.00
4308;DHT22;2167;53.448;9.984;2023-05-02T16:40:10;13.00;1.00
4308;DHT22;2167;53.448;9.984;2023-05-02T16:42:37;13.00;1.00
4308;DHT22;2167;53.448;9.984;2023-05-02T16:45:03;12.90;1.00
4308;DHT22;2167;53.448;9.984;2023-05-02T16:47:29;12.80;1.00
4308;DHT22;2167;53.448;9.984;2023-05-02T16:49:58;12.80;1.00
4308;DHT22;2167;53.448;9.984;2023-05-02T16:52:24;12.60;1.00
4308;DHT22;2167;53.448;9.984;2023-05-02T16:54:50;12.50;1.00
4308;DHT22;2167;53.448;9.984;2023-05-02T16:57:17;12.50;1.00
4308;DHT22;2167;53.448;9.984;2023-05-02T16:59:47;12.50;1.00
4308;DHT22;2167;53.448;9.984;2023-05-02T17:02:13;12.40;1.00
4308;DHT22;2167;53.448;9.984;2023-05-02T17:04:39;12.20;1.00
4308;DHT22;2167;53.448;9.984;2023-05-02T17:07:05;12.00;1.00